createdAt,value
2023-02-22T00:01:35.274Z,95.81
2023-02-22T00:04:06.700Z,95.88
2023-02-22T00:06:33.264Z,95.86
2023-02-22T00:08:59.940Z,95.67
2023-02-22T00:11:26.660Z,95.61
2023-02-22T00:13:56.994Z,96.29
2023-02-22T00:16:24.301Z,95.63
2023-02-22T00:18:51.816Z,95.45
2023-02-22T00:21:18.810Z,95.81
2023-02-22T00:23:48.206Z,95.76
2023-02-22T00:26:19.317Z,95.99
2023-02-22T00:28:52.418Z,96.40
2023-02-22T00:31:19.939Z,95.63
2023-02-22T00:33:46.563Z,95.22
2023-02-22T00:36:13.561Z,95.59
2023-02-22T00:38:41.337Z,95.88
2023-02-22T00:41:08.141Z,95.54
2023-02-22T00:43:34.572Z,96.02
2023-02-22T00:46:01.092Z,96.05
2023-02-22T00:48:28.247Z,96.44
2023-02-22T00:50:55.280Z,96.23
2023-02-22T00:53:25.478Z,96.41
2023-02-22T00:55:52.708Z,96.10
2023-02-22T00:58:19.526Z,96.43
2023-02-22T01:00:46.682Z,96.16
2023-02-22T01:03:16.054Z,96.32
2023-02-22T01:05:43.175Z,96.25
2023-02-22T01:08:12.176Z,96.68
2023-02-22T01:10:39.740Z,96.03
2023-02-22T01:13:09.302Z,96.08
2023-02-22T01:15:37.734Z,95.96
2023-02-22T01:18:05.086Z,95.71
2023-02-22T01:20:32.570Z,96.25
2023-02-22T01:23:01.546Z,95.95
2023-02-22T01:25:30.270Z,95.97
2023-02-22T01:27:58.425Z,96.13
2023-02-22T01:30:28.296Z,96.42
2023-02-22T01:32:55.703Z,97.08
2023-02-22T01:35:27.836Z,96.66
2023-02-22T01:37:54.774Z,96.47
2023-02-22T01:40:30.836Z,97.16
2023-02-22T01:43:00.220Z,96.62
2023-02-22T01:45:29.988Z,96.65
2023-02-22T01:48:00.428Z,96.58
2023-02-22T01:50:27.599Z,96.64
2023-02-22T01:52:54.268Z,96.57
2023-02-22T01:55:20.709Z,96.96
2023-02-22T01:57:48.373Z,96.33
2023-02-22T02:00:20.183Z,96.86
2023-02-22T02:02:59.034Z,96.53
2023-02-22T02:05:31.455Z,96.88
2023-02-22T02:07:59.588Z,97.04
2023-02-22T02:10:26.730Z,96.77
2023-02-22T02:12:53.904Z,97.07
2023-02-22T02:15:32.815Z,96.51
2023-02-22T02:18:06.190Z,96.94
2023-02-22T02:20:47.469Z,96.44
2023-02-22T02:23:51.599Z,95.83
2023-02-22T02:26:36.571Z,95.75
2023-02-22T02:29:34.893Z,95.74
2023-02-22T02:32:22.670Z,95.40
2023-02-22T02:35:04.712Z,95.81
2023-02-22T02:37:36.773Z,95.53
2023-02-22T02:40:12.079Z,95.45
2023-02-22T02:42:46.948Z,95.58
2023-02-22T02:45:24.725Z,95.75
2023-02-22T02:47:58.774Z,95.26
2023-02-22T02:50:31.928Z,95.62
2023-02-22T02:53:04.536Z,95.73
2023-02-22T02:55:32.437Z,96.28
2023-02-22T02:58:00.173Z,95.88
2023-02-22T03:00:39.036Z,95.25
2023-02-22T03:03:11.300Z,95.74
2023-02-22T03:06:01.792Z,96.13
2023-02-22T03:08:59.155Z,95.73
2023-02-22T03:11:32.139Z,95.75
2023-02-22T03:13:58.475Z,95.39
2023-02-22T03:16:40.428Z,95.43
2023-02-22T03:19:28.255Z,95.56
2023-02-22T03:22:02.413Z,95.51
2023-02-22T03:24:39.514Z,95.71
2023-02-22T03:27:21.752Z,95.50
2023-02-22T03:29:51.494Z,95.84
2023-02-22T03:32:23.282Z,95.76
2023-02-22T03:34:57.386Z,95.66
2023-02-22T03:37:30.725Z,95.71
2023-02-22T03:40:01.613Z,95.61
2023-02-22T03:42:37.575Z,95.39
2023-02-22T03:45:07.004Z,96.33
2023-02-22T03:47:44.383Z,96.24
2023-02-22T03:50:35.629Z,96.29
2023-02-22T03:53:02.751Z,96.20
2023-02-22T03:55:31.305Z,96.26
2023-02-22T03:57:59.935Z,95.87
2023-02-22T04:00:30.600Z,95.62
2023-02-22T04:02:57.453Z,96.31
2023-02-22T04:05:24.983Z,96.18
2023-02-22T04:07:56.455Z,97.00
2023-02-22T04:10:24.463Z,97.34
2023-02-22T04:12:51.064Z,97.04
2023-02-22T04:15:21.556Z,97.29
2023-02-22T04:17:47.976Z,97.09
2023-02-22T04:20:15.295Z,97.92
2023-02-22T04:22:41.679Z,97.33
2023-02-22T04:25:08.660Z,97.59
2023-02-22T04:27:35.029Z,97.37
2023-02-22T04:30:01.444Z,97.83
2023-02-22T04:32:27.826Z,98.22
2023-02-22T04:34:54.204Z,97.97
2023-02-22T04:37:20.604Z,98.10
2023-02-22T04:39:47.094Z,97.99
2023-02-22T04:42:13.532Z,97.93
2023-02-22T04:44:39.906Z,97.83
2023-02-22T04:47:06.436Z,97.90
2023-02-22T04:49:32.879Z,97.86
2023-02-22T04:51:59.281Z,98.14
2023-02-22T04:54:25.709Z,97.54
2023-02-22T04:56:52.228Z,98.14
2023-02-22T04:59:19.754Z,98.09
2023-02-22T05:01:46.352Z,98.37
2023-02-22T05:04:12.774Z,98.37
2023-02-22T05:06:39.125Z,98.40
2023-02-22T05:09:05.562Z,98.57
2023-02-22T05:11:32.034Z,98.71
2023-02-22T05:13:58.404Z,98.18
2023-02-22T05:16:24.799Z,98.37
2023-02-22T05:18:51.319Z,98.22
2023-02-22T05:21:18.256Z,98.95
2023-02-22T05:23:44.764Z,98.62
2023-02-22T05:26:11.734Z,98.51
2023-02-22T05:28:38.545Z,98.32
2023-02-22T05:31:05.479Z,98.42
2023-02-22T05:33:31.955Z,99.25
2023-02-22T05:35:58.534Z,99.33
2023-02-22T05:38:25.193Z,98.92
2023-02-22T05:40:51.671Z,99.29
2023-02-22T05:43:18.236Z,99.16
2023-02-22T05:45:44.628Z,99.31
2023-02-22T05:48:12.883Z,99.65
2023-02-22T05:50:39.476Z,100.00
2023-02-22T05:53:06.432Z,100.00
2023-02-22T05:55:33.072Z,100.00
2023-02-22T05:57:59.460Z,100.00
2023-02-22T06:00:30.520Z,100.00
2023-02-22T06:03:02.731Z,100.00
2023-02-22T06:05:30.183Z,100.00
2023-02-22T06:07:57.696Z,100.00
2023-02-22T06:10:25.195Z,100.00
2023-02-22T06:12:52.446Z,100.00
2023-02-22T06:15:20.472Z,100.00
2023-02-22T06:17:47.431Z,100.00
2023-02-22T06:20:17.164Z,100.00
2023-02-22T06:22:44.646Z,100.00
2023-02-22T06:25:16.028Z,100.00
2023-02-22T06:27:42.623Z,100.00
2023-02-22T06:30:13.385Z,100.00
2023-02-22T06:32:39.964Z,100.00
2023-02-22T06:35:07.464Z,100.00
2023-02-22T06:37:33.862Z,100.00
2023-02-22T06:40:04.913Z,100.00
2023-02-22T06:42:31.859Z,100.00
2023-02-22T06:44:58.325Z,100.00
2023-02-22T06:47:24.777Z,100.00
2023-02-22T06:49:55.804Z,100.00
2023-02-22T06:52:22.984Z,100.00
2023-02-22T06:54:50.210Z,100.00
2023-02-22T06:57:17.075Z,100.00
2023-02-22T06:59:43.713Z,100.00
2023-02-22T07:02:11.788Z,100.00
2023-02-22T07:04:39.222Z,100.00
2023-02-22T07:07:06.546Z,100.00
2023-02-22T07:09:33.032Z,100.00
2023-02-22T07:11:59.558Z,100.00
2023-02-22T07:14:26.051Z,100.00
2023-02-22T07:16:52.470Z,100.00
2023-02-22T07:19:18.853Z,100.00
2023-02-22T07:21:47.883Z,100.00
2023-02-22T07:24:14.422Z,100.00
2023-02-22T07:26:42.288Z,100.00
2023-02-22T07:29:08.736Z,100.00
2023-02-22T07:31:37.191Z,100.00
2023-02-22T07:34:03.640Z,100.00
2023-02-22T07:36:30.082Z,100.00
2023-02-22T07:38:56.534Z,100.00
2023-02-22T07:41:23.083Z,100.00
2023-02-22T07:43:49.519Z,100.00
2023-02-22T07:46:15.930Z,100.00
2023-02-22T07:48:42.425Z,100.00
2023-02-22T07:51:10.068Z,100.00
2023-02-22T07:53:36.896Z,100.00
2023-02-22T07:56:05.571Z,100.00
2023-02-22T07:58:32.790Z,100.00
2023-02-22T08:01:01.996Z,100.00
2023-02-22T08:03:31.956Z,100.00
2023-02-22T08:06:00.422Z,100.00
2023-02-22T08:08:26.844Z,100.00
2023-02-22T08:10:53.232Z,100.00
2023-02-22T08:13:21.969Z,100.00
2023-02-22T08:15:51.891Z,100.00
2023-02-22T08:18:20.250Z,100.00
2023-02-22T08:20:49.310Z,100.00
2023-02-22T08:23:16.797Z,100.00
2023-02-22T08:25:43.213Z,100.00
2023-02-22T08:28:12.083Z,100.00
2023-02-22T08:30:40.668Z,100.00
2023-02-22T08:33:07.428Z,100.00
2023-02-22T08:35:34.033Z,100.00
2023-02-22T08:38:03.430Z,100.00
2023-02-22T08:40:32.959Z,100.00
2023-02-22T08:43:01.336Z,100.00
2023-02-22T08:45:28.470Z,100.00
2023-02-22T08:47:54.972Z,100.00
2023-02-22T08:50:27.909Z,100.00
2023-02-22T08:52:56.733Z,100.00
2023-02-22T08:55:25.084Z,100.00
2023-02-22T08:57:51.701Z,100.00
2023-02-22T09:00:19.731Z,100.00
2023-02-22T09:02:46.233Z,100.00
2023-02-22T09:05:12.908Z,100.00
2023-02-22T09:07:42.511Z,100.00
2023-02-22T09:10:17.587Z,100.00
2023-02-22T09:12:44.029Z,100.00
2023-02-22T09:15:12.370Z,100.00
2023-02-22T09:17:38.813Z,100.00
2023-02-22T09:20:06.950Z,100.00
2023-02-22T09:22:33.430Z,100.00
2023-02-22T09:25:02.608Z,100.00
2023-02-22T09:27:34.446Z,100.00
2023-02-22T09:30:00.872Z,100.00
2023-02-22T09:32:28.115Z,100.00
2023-02-22T09:34:54.740Z,100.00
2023-02-22T09:37:21.511Z,100.00
2023-02-22T09:39:48.040Z,100.00
2023-02-22T09:42:29.467Z,100.00
2023-02-22T09:45:02.424Z,99.81
2023-02-22T09:47:41.747Z,100.00
2023-02-22T09:50:17.620Z,100.00
2023-02-22T09:53:14.372Z,99.84
2023-02-22T09:55:47.813Z,99.81
2023-02-22T09:58:24.954Z,99.43
2023-02-22T10:00:59.620Z,99.04
2023-02-22T10:03:50.712Z,98.98
2023-02-22T10:06:22.710Z,98.33
2023-02-22T10:08:54.377Z,97.99
2023-02-22T10:11:43.230Z,97.19
2023-02-22T10:14:43.786Z,96.94
2023-02-22T10:17:32.016Z,96.50
2023-02-22T10:20:13.385Z,96.24
2023-02-22T10:22:49.520Z,96.33
2023-02-22T10:25:20.035Z,96.16
2023-02-22T10:28:06.490Z,95.51
2023-02-22T10:30:38.384Z,94.41
2023-02-22T10:33:15.044Z,94.02
2023-02-22T10:35:42.072Z,93.66
2023-02-22T10:38:12.512Z,93.55
2023-02-22T10:40:39.303Z,93.69
2023-02-22T10:43:08.187Z,93.84
2023-02-22T10:45:37.052Z,93.52
2023-02-22T10:48:11.681Z,93.31
2023-02-22T10:50:41.835Z,93.19
2023-02-22T10:53:09.555Z,92.97
2023-02-22T10:55:37.642Z,93.53
2023-02-22T10:58:08.767Z,92.30
2023-02-22T11:00:40.000Z,91.80
2023-02-22T11:03:20.049Z,92.40
2023-02-22T11:05:47.295Z,90.56
2023-02-22T11:08:25.923Z,91.92
2023-02-22T11:10:55.609Z,91.23
2023-02-22T11:13:31.619Z,91.60
2023-02-22T11:16:17.713Z,92.45
2023-02-22T11:18:45.739Z,91.41
2023-02-22T11:21:13.971Z,90.99
2023-02-22T11:23:44.798Z,92.59
2023-02-22T11:26:16.790Z,91.75
2023-02-22T11:28:49.998Z,91.51
2023-02-22T11:31:23.542Z,91.41
2023-02-22T11:33:59.285Z,90.88
2023-02-22T11:36:42.812Z,91.10
2023-02-22T11:39:32.362Z,90.76
2023-02-22T11:41:58.921Z,90.62
2023-02-22T11:44:30.764Z,90.57
2023-02-22T11:47:06.679Z,89.61
2023-02-22T11:49:40.489Z,89.80
2023-02-22T11:52:28.172Z,90.03
2023-02-22T11:55:36.292Z,89.06
2023-02-22T11:58:08.450Z,88.98
2023-02-22T12:01:07.070Z,88.98
2023-02-22T12:03:58.388Z,89.05
2023-02-22T12:06:58.300Z,88.73
2023-02-22T12:09:42.174Z,89.29
2023-02-22T12:12:40.457Z,88.90
2023-02-22T12:15:18.229Z,88.81
2023-02-22T12:18:05.760Z,88.36
2023-02-22T12:20:39.879Z,89.61
2023-02-22T12:23:12.889Z,88.68
2023-02-22T12:25:46.688Z,88.96
2023-02-22T12:28:38.060Z,88.96
2023-02-22T12:31:40.638Z,88.75
2023-02-22T12:34:14.235Z,87.07
2023-02-22T12:36:47.400Z,87.16
2023-02-22T12:39:52.095Z,86.32
2023-02-22T12:42:41.837Z,86.46
2023-02-22T12:45:16.887Z,85.33
2023-02-22T12:47:51.239Z,85.16
2023-02-22T12:50:23.421Z,84.08
2023-02-22T12:52:56.119Z,83.30
2023-02-22T12:55:33.080Z,84.29
2023-02-22T12:58:30.470Z,84.03
2023-02-22T13:01:00.693Z,83.34
2023-02-22T13:03:37.744Z,84.21
2023-02-22T13:06:29.126Z,84.41
2023-02-22T13:09:17.007Z,84.19
2023-02-22T13:11:55.891Z,84.48
2023-02-22T13:14:41.119Z,84.01
2023-02-22T13:17:21.046Z,84.43
2023-02-22T13:20:10.843Z,84.16
2023-02-22T13:23:00.381Z,85.03
2023-02-22T13:25:38.944Z,84.18
2023-02-22T13:28:22.312Z,84.92
2023-02-22T13:31:07.352Z,85.51
2023-02-22T13:33:43.980Z,85.68
2023-02-22T13:36:33.047Z,86.13
2023-02-22T13:39:18.182Z,85.52
2023-02-22T13:42:32.170Z,85.00
2023-02-22T13:45:35.764Z,85.46
2023-02-22T13:48:08.204Z,85.99
2023-02-22T13:50:59.578Z,85.62
2023-02-22T13:53:32.886Z,85.50
2023-02-22T13:56:00.607Z,84.96
2023-02-22T13:58:27.603Z,84.95
2023-02-22T14:00:56.975Z,85.61
2023-02-22T14:03:34.156Z,85.81
2023-02-22T14:06:01.382Z,86.56
2023-02-22T14:08:33.751Z,86.10
2023-02-22T14:11:00.858Z,86.18
2023-02-22T14:13:29.856Z,86.16
2023-02-22T14:16:05.241Z,85.93
2023-02-22T14:18:34.855Z,86.32
2023-02-22T14:21:08.590Z,86.75
2023-02-22T14:23:36.469Z,86.48
2023-02-22T14:26:36.890Z,87.05
2023-02-22T14:29:09.321Z,86.78
2023-02-22T14:31:43.466Z,86.16
2023-02-22T14:34:17.443Z,87.06
2023-02-22T14:36:58.360Z,86.22
2023-02-22T14:39:43.493Z,86.38
2023-02-22T14:42:21.875Z,86.31
2023-02-22T14:44:48.755Z,85.56
2023-02-22T14:47:22.677Z,86.30
2023-02-22T14:49:52.649Z,85.42
2023-02-22T14:52:26.609Z,85.39
2023-02-22T14:55:06.185Z,85.77
2023-02-22T14:57:54.976Z,86.30
2023-02-22T15:00:31.121Z,85.88
2023-02-22T15:03:00.338Z,86.69
2023-02-22T15:05:30.352Z,85.44
2023-02-22T15:08:02.363Z,85.68
2023-02-22T15:10:45.956Z,85.69
2023-02-22T15:13:19.857Z,86.49
2023-02-22T15:15:49.674Z,87.12
2023-02-22T15:18:34.458Z,86.54
2023-02-22T15:21:23.520Z,86.30
2023-02-22T15:23:53.660Z,87.08
2023-02-22T15:26:25.645Z,87.38
2023-02-22T15:28:59.538Z,87.56
2023-02-22T15:31:35.081Z,88.25
2023-02-22T15:34:27.248Z,87.69
2023-02-22T15:36:56.140Z,87.69
2023-02-22T15:39:33.136Z,88.19
2023-02-22T15:42:08.162Z,88.82
2023-02-22T15:44:43.326Z,88.29
2023-02-22T15:47:27.391Z,88.31
2023-02-22T15:50:25.930Z,89.04
2023-02-22T15:52:59.110Z,88.79
2023-02-22T15:55:29.925Z,88.99
2023-02-22T15:58:01.749Z,89.15
2023-02-22T16:00:41.515Z,88.89
2023-02-22T16:03:11.387Z,89.48
2023-02-22T16:05:45.952Z,88.92
2023-02-22T16:08:20.371Z,89.19
2023-02-22T16:11:01.042Z,89.44
2023-02-22T16:13:35.587Z,89.87
2023-02-22T16:16:03.355Z,89.50
2023-02-22T16:18:36.888Z,89.58
2023-02-22T16:21:07.221Z,90.11
2023-02-22T16:23:50.801Z,90.13
2023-02-22T16:26:30.808Z,89.98
2023-02-22T16:28:58.464Z,90.51
2023-02-22T16:31:36.809Z,90.34
2023-02-22T16:34:06.058Z,90.05
2023-02-22T16:36:38.220Z,90.16
2023-02-22T16:39:14.061Z,90.83
2023-02-22T16:41:40.566Z,90.66
2023-02-22T16:44:07.995Z,91.39
2023-02-22T16:46:35.077Z,90.88
2023-02-22T16:49:03.310Z,91.31
2023-02-22T16:51:44.849Z,91.88
2023-02-22T16:54:13.962Z,91.28
2023-02-22T16:56:41.230Z,92.03
2023-02-22T16:59:12.329Z,91.90
2023-02-22T17:01:38.767Z,91.73
2023-02-22T17:04:28.680Z,91.90
2023-02-22T17:06:55.066Z,92.15
2023-02-22T17:09:21.533Z,92.52
2023-02-22T17:11:51.342Z,92.49
2023-02-22T17:14:23.064Z,92.42
2023-02-22T17:16:50.639Z,92.65
2023-02-22T17:19:19.776Z,92.42
2023-02-22T17:21:46.265Z,92.84
2023-02-22T17:24:14.182Z,92.60
2023-02-22T17:26:41.572Z,93.15
2023-02-22T17:29:08.052Z,93.06
2023-02-22T17:31:35.232Z,93.24
2023-02-22T17:34:04.488Z,92.65
2023-02-22T17:36:32.687Z,93.12
2023-02-22T17:39:00.195Z,92.70
2023-02-22T17:41:26.624Z,92.55
2023-02-22T17:43:54.457Z,93.25
2023-02-22T17:46:21.100Z,92.61
2023-02-22T17:48:53.598Z,92.78
2023-02-22T17:51:22.278Z,92.95
2023-02-22T17:53:48.708Z,92.86
2023-02-22T17:56:18.701Z,92.66
2023-02-22T17:58:47.845Z,93.14
2023-02-22T18:01:26.899Z,93.28
2023-02-22T18:03:55.119Z,93.35
2023-02-22T18:06:25.408Z,92.84
2023-02-22T18:08:55.742Z,93.12
2023-02-22T18:11:26.129Z,93.48
2023-02-22T18:13:57.393Z,93.46
2023-02-22T18:16:28.403Z,93.46
2023-02-22T18:18:55.848Z,93.91
2023-02-22T18:21:23.120Z,93.82
2023-02-22T18:23:49.731Z,94.03
2023-02-22T18:26:18.242Z,93.98
2023-02-22T18:28:44.854Z,93.84
2023-02-22T18:31:14.924Z,93.77
2023-02-22T18:33:43.181Z,94.46
2023-02-22T18:36:13.265Z,94.84
2023-02-22T18:38:43.669Z,94.95
2023-02-22T18:41:17.033Z,94.81
2023-02-22T18:43:44.247Z,95.05
2023-02-22T18:46:17.909Z,94.92
2023-02-22T18:48:46.627Z,95.75
2023-02-22T18:51:15.847Z,95.74
2023-02-22T18:53:47.121Z,95.61
2023-02-22T18:56:21.754Z,95.76
2023-02-22T18:58:52.900Z,96.08
2023-02-22T19:01:19.566Z,96.27
2023-02-22T19:03:47.264Z,96.57
2023-02-22T19:06:15.809Z,96.01
2023-02-22T19:08:43.278Z,96.39
2023-02-22T19:11:17.881Z,96.39
2023-02-22T19:13:46.537Z,96.69
2023-02-22T19:16:14.531Z,97.33
2023-02-22T19:18:44.126Z,96.86
2023-02-22T19:21:12.304Z,97.25
2023-02-22T19:23:45.510Z,97.19
2023-02-22T19:26:13.824Z,97.61
2023-02-22T19:28:40.345Z,96.98
2023-02-22T19:31:33.597Z,97.47
2023-02-22T19:34:10.290Z,97.18
2023-02-22T19:36:43.232Z,97.32
2023-02-22T19:39:09.719Z,97.52
2023-02-22T19:41:36.483Z,97.11
2023-02-22T19:44:02.934Z,97.49
2023-02-22T19:46:29.447Z,97.26
2023-02-22T19:48:56.150Z,97.57
2023-02-22T19:51:28.581Z,97.67
2023-02-22T19:54:04.368Z,97.21
2023-02-22T19:56:31.620Z,97.58
2023-02-22T19:59:02.051Z,98.02
2023-02-22T20:01:33.139Z,97.78
2023-02-22T20:04:01.999Z,97.75
2023-02-22T20:06:34.488Z,97.99
2023-02-22T20:09:02.549Z,97.93
2023-02-22T20:11:29.867Z,98.10
2023-02-22T20:13:56.229Z,98.41
2023-02-22T20:16:23.484Z,97.74
2023-02-22T20:18:50.455Z,98.35
2023-02-22T20:21:30.733Z,98.36
2023-02-22T20:24:02.460Z,98.25
2023-02-22T20:26:31.175Z,97.61
2023-02-22T20:28:59.180Z,98.42
2023-02-22T20:31:26.281Z,98.48
2023-02-22T20:33:55.519Z,97.98
2023-02-22T20:36:22.821Z,97.90
2023-02-22T20:38:56.080Z,98.26
2023-02-22T20:41:27.096Z,98.13
2023-02-22T20:43:55.256Z,98.28
2023-02-22T20:46:23.766Z,97.92
2023-02-22T20:48:55.260Z,97.66
2023-02-22T20:51:21.888Z,97.22
2023-02-22T20:53:48.826Z,97.71
2023-02-22T20:56:23.733Z,97.63
2023-02-22T20:58:50.871Z,97.48
2023-02-22T21:01:19.906Z,97.11
2023-02-22T21:03:46.905Z,97.12
2023-02-22T21:06:18.222Z,97.61
2023-02-22T21:08:49.149Z,97.30
2023-02-22T21:11:17.592Z,97.04
2023-02-22T21:13:44.205Z,97.57
2023-02-22T21:16:17.676Z,97.58
2023-02-22T21:18:44.228Z,97.49
2023-02-22T21:21:12.187Z,97.10
2023-02-22T21:23:40.568Z,97.67
2023-02-22T21:26:13.303Z,97.28
2023-02-22T21:28:50.966Z,97.88
2023-02-22T21:31:20.341Z,97.92
2023-02-22T21:33:50.322Z,97.67
2023-02-22T21:36:17.091Z,97.67
2023-02-22T21:38:47.047Z,98.08
2023-02-22T21:41:15.537Z,97.98
2023-02-22T21:43:43.356Z,97.81
2023-02-22T21:46:10.732Z,98.33
2023-02-22T21:48:38.852Z,98.68
2023-02-22T21:51:13.697Z,98.75
2023-02-22T21:53:48.818Z,99.14
2023-02-22T21:56:22.989Z,98.59
2023-02-22T21:59:00.960Z,99.17
2023-02-22T22:01:29.604Z,99.05
2023-02-22T22:03:59.648Z,98.69
2023-02-22T22:06:28.085Z,98.94
2023-02-22T22:08:55.149Z,98.57
2023-02-22T22:11:22.189Z,99.09
2023-02-22T22:13:49.110Z,99.23
2023-02-22T22:16:18.451Z,98.67
2023-02-22T22:18:47.320Z,98.97
2023-02-22T22:21:19.614Z,98.70
2023-02-22T22:23:47.540Z,98.74
2023-02-22T22:26:16.399Z,98.54
2023-02-22T22:28:57.932Z,99.11
2023-02-22T22:31:26.030Z,99.31
2023-02-22T22:33:52.926Z,99.84
2023-02-22T22:36:21.420Z,99.84
2023-02-22T22:38:48.600Z,98.88
2023-02-22T22:41:17.516Z,99.22
2023-02-22T22:43:47.487Z,99.04
2023-02-22T22:46:17.603Z,100.00
2023-02-22T22:48:46.911Z,100.00
2023-02-22T22:51:20.667Z,99.73
2023-02-22T22:53:48.734Z,99.73
2023-02-22T22:56:21.703Z,100.00
2023-02-22T22:58:48.018Z,100.00
2023-02-22T23:01:20.162Z,100.00
2023-02-22T23:03:54.841Z,100.00
2023-02-22T23:06:24.941Z,100.00
2023-02-22T23:08:59.982Z,100.00
2023-02-22T23:11:28.763Z,100.00
2023-02-22T23:13:56.376Z,100.00
2023-02-22T23:16:24.181Z,100.00
2023-02-22T23:18:51.444Z,100.00
2023-02-22T23:21:23.707Z,100.00
2023-02-22T23:23:54.864Z,100.00
2023-02-22T23:26:21.238Z,100.00
2023-02-22T23:28:48.940Z,100.00
2023-02-22T23:31:17.820Z,100.00
2023-02-22T23:33:48.118Z,100.00
2023-02-22T23:36:16.043Z,100.00
2023-02-22T23:38:43.291Z,100.00
2023-02-22T23:41:12.201Z,100.00
2023-02-22T23:43:42.900Z,100.00
2023-02-22T23:46:12.163Z,100.00
2023-02-22T23:48:40.430Z,100.00
2023-02-22T23:51:09.248Z,100.00
2023-02-22T23:53:38.144Z,100.00
2023-02-22T23:56:13.100Z,100.00
2023-02-22T23:58:42.069Z,100.00
